createdAt,value
2023-03-22T00:02:05.279Z,88.48
2023-03-22T00:04:32.606Z,88.79
2023-03-22T00:06:59.152Z,88.50
2023-03-22T00:09:25.613Z,88.87
2023-03-22T00:11:52.271Z,88.74
2023-03-22T00:14:18.921Z,88.64
2023-03-22T00:16:49.361Z,88.98
2023-03-22T00:19:17.228Z,89.29
2023-03-22T00:21:43.966Z,88.91
2023-03-22T00:24:10.579Z,89.31
2023-03-22T00:26:37.075Z,89.21
2023-03-22T00:29:03.965Z,89.40
2023-03-22T00:31:30.498Z,89.86
2023-03-22T00:33:57.061Z,89.67
2023-03-22T00:36:23.569Z,89.74
2023-03-22T00:38:51.858Z,89.77
2023-03-22T00:41:23.412Z,89.76
2023-03-22T00:43:50.786Z,89.87
2023-03-22T00:46:19.803Z,89.96
2023-03-22T00:48:46.744Z,89.86
2023-03-22T00:51:14.542Z,89.64
2023-03-22T00:53:43.270Z,89.91
2023-03-22T00:56:14.057Z,89.71
2023-03-22T00:58:50.708Z,89.76
2023-03-22T01:01:17.419Z,89.78
2023-03-22T01:03:44.105Z,89.82
2023-03-22T01:06:14.257Z,90.02
2023-03-22T01:08:40.696Z,90.27
2023-03-22T01:11:09.484Z,89.74
2023-03-22T01:13:41.694Z,89.93
2023-03-22T01:16:09.829Z,89.50
2023-03-22T01:18:36.549Z,89.43
2023-03-22T01:21:03.617Z,89.47
2023-03-22T01:23:30.792Z,89.76
2023-03-22T01:25:57.660Z,89.69
2023-03-22T01:28:26.888Z,89.68
2023-03-22T01:30:54.923Z,89.64
2023-03-22T01:33:21.396Z,89.49
2023-03-22T01:35:48.097Z,89.63
2023-03-22T01:38:14.967Z,89.40
2023-03-22T01:40:49.852Z,89.42
2023-03-22T01:43:17.289Z,89.30
2023-03-22T01:45:47.689Z,88.86
2023-03-22T01:48:17.581Z,88.54
2023-03-22T01:50:51.520Z,88.49
2023-03-22T01:53:19.502Z,88.90
2023-03-22T01:55:47.052Z,88.68
2023-03-22T01:58:20.546Z,88.61
2023-03-22T02:00:52.882Z,88.70
2023-03-22T02:03:43.145Z,88.68
2023-03-22T02:06:11.682Z,88.49
2023-03-22T02:08:40.447Z,88.56
2023-03-22T02:11:17.048Z,88.60
2023-03-22T02:14:09.500Z,88.62
2023-03-22T02:17:13.047Z,88.67
2023-03-22T02:20:24.482Z,88.84
2023-03-22T02:23:36.767Z,88.80
2023-03-22T02:26:29.868Z,89.05
2023-03-22T02:29:01.300Z,88.90
2023-03-22T02:32:06.551Z,89.08
2023-03-22T02:34:32.980Z,89.39
2023-03-22T02:37:07.437Z,89.24
2023-03-22T02:39:39.861Z,89.39
2023-03-22T02:42:31.189Z,89.60
2023-03-22T02:45:31.231Z,89.71
2023-03-22T02:48:07.083Z,89.94
2023-03-22T02:50:53.890Z,90.24
2023-03-22T02:53:27.913Z,90.38
2023-03-22T02:56:03.739Z,90.53
2023-03-22T02:58:48.166Z,90.80
2023-03-22T03:01:27.952Z,90.91
2023-03-22T03:03:58.466Z,90.88
2023-03-22T03:06:30.963Z,91.14
2023-03-22T03:09:02.672Z,91.40
2023-03-22T03:11:29.524Z,91.58
2023-03-22T03:13:56.896Z,91.75
2023-03-22T03:16:27.456Z,91.66
2023-03-22T03:19:01.069Z,92.12
2023-03-22T03:21:45.339Z,92.05
2023-03-22T03:24:23.130Z,92.46
2023-03-22T03:26:58.771Z,92.48
2023-03-22T03:29:44.754Z,92.96
2023-03-22T03:32:27.203Z,93.00
2023-03-22T03:35:04.867Z,93.11
2023-03-22T03:37:41.426Z,93.66
2023-03-22T03:40:17.547Z,93.48
2023-03-22T03:42:49.883Z,93.80
2023-03-22T03:45:18.386Z,94.09
2023-03-22T03:47:47.121Z,93.72
2023-03-22T03:50:16.121Z,93.82
2023-03-22T03:52:42.975Z,93.73
2023-03-22T03:55:09.722Z,93.83
2023-03-22T03:57:36.207Z,93.78
2023-03-22T04:00:04.172Z,93.89
2023-03-22T04:02:49.102Z,94.08
2023-03-22T04:05:35.427Z,93.59
2023-03-22T04:08:01.905Z,93.74
2023-03-22T04:10:28.456Z,93.81
2023-03-22T04:12:54.938Z,93.65
2023-03-22T04:15:21.538Z,93.59
2023-03-22T04:17:53.995Z,93.75
2023-03-22T04:20:23.658Z,93.65
2023-03-22T04:22:50.156Z,93.57
2023-03-22T04:25:18.224Z,93.29
2023-03-22T04:27:55.786Z,93.61
2023-03-22T04:30:22.886Z,93.58
2023-03-22T04:33:01.305Z,93.45
2023-03-22T04:35:46.229Z,93.19
2023-03-22T04:38:14.058Z,93.13
2023-03-22T04:40:46.459Z,93.27
2023-03-22T04:43:25.840Z,92.96
2023-03-22T04:45:58.345Z,92.83
2023-03-22T04:48:31.059Z,92.90
2023-03-22T04:51:03.981Z,92.75
2023-03-22T04:53:38.750Z,92.82
2023-03-22T04:56:08.651Z,92.58
2023-03-22T04:58:37.243Z,92.58
2023-03-22T05:01:03.734Z,92.41
2023-03-22T05:03:30.290Z,92.54
2023-03-22T05:06:00.224Z,92.33
2023-03-22T05:08:35.641Z,92.29
2023-03-22T05:11:12.077Z,92.55
2023-03-22T05:13:39.438Z,92.61
2023-03-22T05:16:06.758Z,92.30
2023-03-22T05:18:45.511Z,92.64
2023-03-22T05:21:21.994Z,92.37
2023-03-22T05:23:52.862Z,92.44
2023-03-22T05:26:20.358Z,92.42
2023-03-22T05:28:47.147Z,92.53
2023-03-22T05:31:23.690Z,92.27
2023-03-22T05:33:56.921Z,92.60
2023-03-22T05:36:29.536Z,92.62
2023-03-22T05:39:10.765Z,92.59
2023-03-22T05:41:37.603Z,92.54
2023-03-22T05:44:08.135Z,92.50
2023-03-22T05:46:37.783Z,92.53
2023-03-22T05:49:27.132Z,92.25
2023-03-22T05:51:54.426Z,92.28
2023-03-22T05:54:23.165Z,92.50
2023-03-22T05:56:52.729Z,92.52
2023-03-22T05:59:20.833Z,92.34
2023-03-22T06:01:47.312Z,92.10
2023-03-22T06:04:21.086Z,92.20
2023-03-22T06:06:55.440Z,92.07
2023-03-22T06:09:33.506Z,92.07
2023-03-22T06:12:01.386Z,92.15
2023-03-22T06:14:28.490Z,91.75
2023-03-22T06:17:07.129Z,91.75
2023-03-22T06:19:33.746Z,91.14
2023-03-22T06:22:03.404Z,91.18
2023-03-22T06:24:31.877Z,90.97
2023-03-22T06:26:58.548Z,91.10
2023-03-22T06:29:25.092Z,90.62
2023-03-22T06:31:54.133Z,90.56
2023-03-22T06:34:20.581Z,90.59
2023-03-22T06:36:47.787Z,89.42
2023-03-22T06:39:24.305Z,88.58
2023-03-22T06:41:51.619Z,87.59
2023-03-22T06:44:18.689Z,86.11
2023-03-22T06:46:51.287Z,86.01
2023-03-22T06:49:28.745Z,86.43
2023-03-22T06:51:56.059Z,85.66
2023-03-22T06:54:22.917Z,85.74
2023-03-22T06:56:49.403Z,85.94
2023-03-22T06:59:16.234Z,85.99
2023-03-22T07:01:42.856Z,85.54
2023-03-22T07:04:10.662Z,84.30
2023-03-22T07:06:37.565Z,84.77
2023-03-22T07:09:04.653Z,84.64
2023-03-22T07:11:34.264Z,84.13
2023-03-22T07:14:02.656Z,84.49
2023-03-22T07:16:47.749Z,84.04
2023-03-22T07:19:18.289Z,84.72
2023-03-22T07:21:44.761Z,84.79
2023-03-22T07:24:13.561Z,84.48
2023-03-22T07:26:41.271Z,83.93
2023-03-22T07:29:10.014Z,83.89
2023-03-22T07:31:37.866Z,84.17
2023-03-22T07:34:07.022Z,83.60
2023-03-22T07:36:42.093Z,82.46
2023-03-22T07:39:11.231Z,81.83
2023-03-22T07:41:42.074Z,81.95
2023-03-22T07:44:23.756Z,81.48
2023-03-22T07:47:05.397Z,81.28
2023-03-22T07:49:38.940Z,79.49
2023-03-22T07:52:12.674Z,80.10
2023-03-22T07:54:40.368Z,79.87
2023-03-22T07:57:08.487Z,80.76
2023-03-22T07:59:40.318Z,80.47
2023-03-22T08:02:10.438Z,80.16
2023-03-22T08:04:42.153Z,79.40
2023-03-22T08:07:18.405Z,78.42
2023-03-22T08:09:46.115Z,78.37
2023-03-22T08:12:12.939Z,77.54
2023-03-22T08:14:40.248Z,77.15
2023-03-22T08:17:13.519Z,76.05
2023-03-22T08:19:40.338Z,76.16
2023-03-22T08:22:11.857Z,76.36
2023-03-22T08:24:56.886Z,76.92
2023-03-22T08:27:27.344Z,77.43
2023-03-22T08:29:54.475Z,77.98
2023-03-22T08:32:21.655Z,77.82
2023-03-22T08:34:48.213Z,78.21
2023-03-22T08:37:14.743Z,77.99
2023-03-22T08:39:43.692Z,77.60
2023-03-22T08:42:21.206Z,77.80
2023-03-22T08:44:47.994Z,77.10
2023-03-22T08:47:14.561Z,77.94
2023-03-22T08:49:43.195Z,76.24
2023-03-22T08:52:16.554Z,76.62
2023-03-22T08:54:59.599Z,75.70
2023-03-22T08:57:44.802Z,74.50
2023-03-22T09:00:48.218Z,75.36
2023-03-22T09:03:30.586Z,74.91
2023-03-22T09:05:57.506Z,76.15
2023-03-22T09:08:24.288Z,76.74
2023-03-22T09:10:57.477Z,76.54
2023-03-22T09:13:24.363Z,76.88
2023-03-22T09:15:56.681Z,77.05
2023-03-22T09:18:27.046Z,76.50
2023-03-22T09:20:56.700Z,76.58
2023-03-22T09:23:28.941Z,76.66
2023-03-22T09:25:55.605Z,76.30
2023-03-22T09:28:25.209Z,77.21
2023-03-22T09:30:53.532Z,77.73
2023-03-22T09:33:20.480Z,77.96
2023-03-22T09:35:50.283Z,78.71
2023-03-22T09:38:16.800Z,79.22
2023-03-22T09:41:05.698Z,80.44
2023-03-22T09:43:37.955Z,80.17
2023-03-22T09:46:13.492Z,81.07
2023-03-22T09:48:42.394Z,82.04
2023-03-22T09:51:17.911Z,82.15
2023-03-22T09:53:44.398Z,83.22
2023-03-22T09:56:19.501Z,83.25
2023-03-22T09:59:04.646Z,84.36
2023-03-22T10:01:39.331Z,84.90
2023-03-22T10:04:17.712Z,85.05
2023-03-22T10:06:51.252Z,86.49
2023-03-22T10:10:05.902Z,87.00
2023-03-22T10:12:58.112Z,86.88
2023-03-22T10:15:33.412Z,87.19
2023-03-22T10:18:02.742Z,88.02
2023-03-22T10:20:48.395Z,88.22
2023-03-22T10:23:22.150Z,87.89
2023-03-22T10:25:50.498Z,88.02
2023-03-22T10:28:22.427Z,87.61
2023-03-22T10:30:54.874Z,88.22
2023-03-22T10:33:26.438Z,88.41
2023-03-22T10:35:53.504Z,88.07
2023-03-22T10:38:26.121Z,88.77
2023-03-22T10:40:55.760Z,88.79
2023-03-22T10:43:36.777Z,89.13
2023-03-22T10:46:07.724Z,89.11
2023-03-22T10:48:44.306Z,89.22
2023-03-22T10:51:25.074Z,89.06
2023-03-22T10:53:54.891Z,89.46
2023-03-22T10:56:21.746Z,89.84
2023-03-22T10:58:50.107Z,89.27
2023-03-22T11:01:26.679Z,89.83
2023-03-22T11:03:57.927Z,90.02
2023-03-22T11:06:29.754Z,89.40
2023-03-22T11:09:02.049Z,90.03
2023-03-22T11:11:36.302Z,89.76
2023-03-22T11:14:06.022Z,89.15
2023-03-22T11:16:52.925Z,89.31
2023-03-22T11:19:28.861Z,88.76
2023-03-22T11:21:57.369Z,88.76
2023-03-22T11:24:28.468Z,88.80
2023-03-22T11:27:24.282Z,88.68
2023-03-22T11:29:54.129Z,88.27
2023-03-22T11:32:30.007Z,87.79
2023-03-22T11:35:12.133Z,88.31
2023-03-22T11:37:43.366Z,88.05
2023-03-22T11:40:19.553Z,88.01
2023-03-22T11:42:47.532Z,87.33
2023-03-22T11:45:27.008Z,86.89
2023-03-22T11:47:54.698Z,87.75
2023-03-22T11:50:29.527Z,86.95
2023-03-22T11:52:57.087Z,87.13
2023-03-22T11:55:25.200Z,87.26
2023-03-22T11:57:55.885Z,86.77
2023-03-22T12:00:27.728Z,87.17
2023-03-22T12:02:56.915Z,86.75
2023-03-22T12:05:30.239Z,87.20
2023-03-22T12:08:06.190Z,86.92
2023-03-22T12:10:39.527Z,86.51
2023-03-22T12:13:13.725Z,87.03
2023-03-22T12:15:48.411Z,87.27
2023-03-22T12:18:22.605Z,86.81
2023-03-22T12:20:56.020Z,86.51
2023-03-22T12:23:37.504Z,86.66
2023-03-22T12:26:07.033Z,86.63
2023-03-22T12:28:38.289Z,86.62
2023-03-22T12:31:07.838Z,86.71
2023-03-22T12:33:44.243Z,86.61
2023-03-22T12:36:17.366Z,86.59
2023-03-22T12:38:53.536Z,86.58
2023-03-22T12:41:34.945Z,86.38
2023-03-22T12:44:11.806Z,86.08
2023-03-22T12:46:50.718Z,86.17
2023-03-22T12:49:22.001Z,85.61
2023-03-22T12:51:51.230Z,86.01
2023-03-22T12:54:22.480Z,86.10
2023-03-22T12:56:50.635Z,86.01
2023-03-22T12:59:28.628Z,85.82
2023-03-22T13:02:15.477Z,85.34
2023-03-22T13:04:43.235Z,85.67
2023-03-22T13:07:14.369Z,85.75
2023-03-22T13:09:46.362Z,85.72
2023-03-22T13:12:16.280Z,85.69
2023-03-22T13:14:49.170Z,85.49
2023-03-22T13:17:25.425Z,85.96
2023-03-22T13:19:58.939Z,85.90
2023-03-22T13:22:30.437Z,86.05
2023-03-22T13:25:23.683Z,86.03
2023-03-22T13:27:53.871Z,85.72
2023-03-22T13:30:20.302Z,86.27
2023-03-22T13:33:12.999Z,85.34
2023-03-22T13:35:52.647Z,85.76
2023-03-22T13:38:41.713Z,85.83
2023-03-22T13:41:26.321Z,86.16
2023-03-22T13:43:56.073Z,86.18
2023-03-22T13:46:22.631Z,86.37
2023-03-22T13:49:13.712Z,86.54
2023-03-22T13:51:40.925Z,86.51
2023-03-22T13:54:18.621Z,86.70
2023-03-22T13:56:54.094Z,87.14
2023-03-22T13:59:27.186Z,86.89
2023-03-22T14:02:07.535Z,87.17
2023-03-22T14:04:43.082Z,87.16
2023-03-22T14:07:28.775Z,87.98
2023-03-22T14:10:05.474Z,87.85
2023-03-22T14:12:53.575Z,88.05
2023-03-22T14:15:26.609Z,87.70
2023-03-22T14:18:00.716Z,87.64
2023-03-22T14:20:34.368Z,87.60
